Time;durP1;ratioP1;P1;durP2;ratioP2;P2;SDS_P1;SDS_P2;PMS_P1;PMS_P2;Temp;Humidity;BMP_temperature;BMP_pressure;BME280_temperature;BME280_humidity;BME280_pressure;Samples;Min_cycle;Max_cycle;Signal;HPM_P1;HPM_P2
2022/10/06 00:00:30;;;;;;;6.22;1.30;;;17.60;99.90;;;;;;5091799;28;20241;-79
2022/10/06 00:03:00;;;;;;;8.13;1.73;;;17.60;99.90;;;;;;5090968;28;20219;-79
2022/10/06 00:05:32;;;;;;;4.85;1.48;;;17.60;99.90;;;;;;5081755;28;20207;-79
2022/10/06 00:08:05;;;;;;;6.53;1.70;;;17.60;99.90;;;;;;5077791;28;20262;-79
2022/10/06 00:10:35;;;;;;;7.38;1.90;;;17.60;99.90;;;;;;5071569;28;20192;-79
2022/10/06 00:13:06;;;;;;;3.20;1.15;;;17.60;99.90;;;;;;5085378;28;20242;-80
2022/10/06 00:15:37;;;;;;;3.42;0.98;;;17.50;99.90;;;;;;5093387;28;20735;-81
2022/10/06 00:18:08;;;;;;;4.65;0.90;;;17.50;99.90;;;;;;5093316;28;20278;-79
2022/10/06 00:20:42;;;;;;;4.30;1.20;;;17.50;99.90;;;;;;5093827;28;20234;-80
2022/10/06 00:23:15;;;;;;;1.90;0.80;;;17.40;99.90;;;;;;5086415;28;20258;-79
2022/10/06 00:25:46;;;;;;;4.47;1.13;;;17.40;99.90;;;;;;5081171;28;20192;-79
2022/10/06 00:28:17;;;;;;;4.05;1.25;;;17.50;99.90;;;;;;5084278;28;20653;-79
2022/10/06 00:30:49;;;;;;;4.25;0.80;;;17.40;99.90;;;;;;5092731;28;20681;-78
2022/10/06 00:33:22;;;;;;;3.85;1.00;;;17.50;99.90;;;;;;5092981;28;20203;-78
2022/10/06 00:35:59;;;;;;;4.65;1.05;;;17.50;99.90;;;;;;5093489;28;20199;-78
2022/10/06 00:38:32;;;;;;;2.97;0.95;;;17.50;99.90;;;;;;5088689;28;20662;-78
2022/10/06 00:41:03;;;;;;;5.35;1.10;;;17.50;99.90;;;;;;5087131;28;20192;-77
2022/10/06 00:43:45;;;;;;;3.28;1.10;;;17.60;99.90;;;;;;5088953;28;20750;-78
2022/10/06 00:46:28;;;;;;;3.22;1.00;;;17.60;99.90;;;;;;5092920;28;20273;-78
2022/10/06 00:49:05;;;;;;;4.18;1.08;;;17.60;99.90;;;;;;5073791;28;20203;-77
2022/10/06 00:51:38;;;;;;;1.98;0.70;;;17.60;99.90;;;;;;5072925;28;20200;-77
2022/10/06 00:54:11;;;;;;;4.35;0.93;;;17.60;99.90;;;;;;5090614;28;20213;-77
2022/10/06 00:56:43;;;;;;;3.38;1.05;;;17.60;99.90;;;;;;5081852;28;20192;-77
2022/10/06 00:59:15;;;;;;;2.42;0.85;;;17.60;99.90;;;;;;5085901;28;20199;-77
2022/10/06 01:01:53;;;;;;;2.13;1.00;;;17.60;99.90;;;;;;5092993;28;20210;-77
2022/10/06 01:04:25;;;;;;;1.92;0.80;;;17.60;99.90;;;;;;5092733;28;20223;-78
2022/10/06 01:06:59;;;;;;;3.15;0.60;;;17.60;99.90;;;;;;5091786;28;20207;-78
2022/10/06 01:09:33;;;;;;;1.75;0.70;;;17.50;99.90;;;;;;5083604;28;20203;-77
2022/10/06 01:12:08;;;;;;;2.85;0.80;;;17.60;99.90;;;;;;5086792;28;20224;-78
2022/10/06 01:14:41;;;;;;;2.28;1.00;;;17.60;99.90;;;;;;5079297;28;20192;-78
2022/10/06 01:17:18;;;;;;;3.17;1.08;;;17.70;99.90;;;;;;5091855;28;20192;-78
2022/10/06 01:19:53;;;;;;;1.90;0.70;;;17.70;99.90;;;;;;5092650;28;20233;-78
2022/10/06 01:22:30;;;;;;;2.20;0.93;;;17.60;99.90;;;;;;5084878;28;20202;-78
2022/10/06 01:25:01;;;;;;;1.67;0.65;;;17.70;99.90;;;;;;5079177;28;20226;-78
2022/10/06 01:27:34;;;;;;;2.72;0.73;;;17.70;99.90;;;;;;5087803;28;20196;-77
2022/10/06 01:30:06;;;;;;;2.70;0.93;;;17.70;99.90;;;;;;5080362;28;20208;-79
2022/10/06 01:32:39;;;;;;;4.10;0.90;;;17.70;99.90;;;;;;5094698;28;20221;-77
2022/10/06 01:35:11;;;;;;;3.03;0.90;;;17.70;99.90;;;;;;5093923;28;20243;-77
2022/10/06 01:37:44;;;;;;;4.72;1.20;;;17.60;99.90;;;;;;5094212;28;20195;-77
2022/10/06 01:40:15;;;;;;;2.45;0.95;;;17.60;99.90;;;;;;5071200;28;20230;-78
2022/10/06 01:42:46;;;;;;;3.22;0.90;;;17.60;99.90;;;;;;5090296;28;20187;-77
2022/10/06 01:45:17;;;;;;;3.17;1.00;;;17.60;99.90;;;;;;5091028;28;20273;-77
2022/10/06 01:47:47;;;;;;;5.10;1.02;;;17.60;99.90;;;;;;5082320;28;20677;-77
2022/10/06 01:50:18;;;;;;;2.17;0.80;;;17.50;99.90;;;;;;5092845;28;20278;-77
2022/10/06 01:52:51;;;;;;;3.30;0.90;;;17.60;99.90;;;;;;5092216;28;20249;-78
2022/10/06 01:55:22;;;;;;;8.55;1.58;;;17.60;99.90;;;;;;5087401;28;20565;-79
2022/10/06 01:57:52;;;;;;;5.75;1.40;;;17.60;99.90;;;;;;5091127;28;20199;-78
2022/10/06 02:00:23;;;;;;;9.35;2.10;;;17.70;99.90;;;;;;5091289;28;20563;-78
2022/10/06 02:02:54;;;;;;;9.43;1.83;;;17.60;99.90;;;;;;5091141;28;20199;-78
2022/10/06 02:05:24;;;;;;;3.65;1.50;;;17.50;99.90;;;;;;5086007;28;20238;-77
2022/10/06 02:07:57;;;;;;;6.30;1.48;;;17.40;99.90;;;;;;5084664;28;20286;-77
2022/10/06 02:10:28;;;;;;;12.90;2.25;;;17.50;99.90;;;;;;5088371;28;20669;-77
2022/10/06 02:12:59;;;;;;;11.00;2.40;;;17.40;99.90;;;;;;5081897;28;20649;-77
2022/10/06 02:15:32;;;;;;;8.82;2.13;;;17.50;99.90;;;;;;5086884;28;20212;-77
2022/10/06 02:18:05;;;;;;;5.93;1.38;;;17.50;99.90;;;;;;5088565;28;20303;-76
2022/10/06 02:20:36;;;;;;;6.18;1.20;;;17.50;99.90;;;;;;5090500;28;20699;-76
2022/10/06 02:23:08;;;;;;;2.70;0.70;;;17.60;99.90;;;;;;5078420;28;20197;-76
2022/10/06 02:25:39;;;;;;;1.08;0.45;;;17.70;99.90;;;;;;5088321;28;20226;-76
2022/10/06 02:28:10;;;;;;;4.00;0.77;;;17.70;99.90;;;;;;5084794;28;20203;-76
2022/10/06 02:30:40;;;;;;;2.72;0.70;;;17.60;99.90;;;;;;5077791;28;20203;-76
2022/10/06 02:33:11;;;;;;;2.25;0.80;;;17.50;99.90;;;;;;5083325;28;20658;-76
2022/10/06 02:35:42;;;;;;;1.48;0.60;;;17.50;99.90;;;;;;5089361;28;20268;-77
2022/10/06 02:38:15;;;;;;;3.75;1.00;;;17.60;99.90;;;;;;5088344;28;20192;-75
2022/10/06 02:40:46;;;;;;;4.18;1.10;;;17.50;99.90;;;;;;5087762;28;20197;-77
2022/10/06 02:43:17;;;;;;;4.03;1.13;;;17.50;99.90;;;;;;5080416;28;20261;-77
2022/10/06 02:45:56;;;;;;;6.05;1.08;;;17.50;99.90;;;;;;5070794;28;20223;-77
2022/10/06 02:48:27;;;;;;;4.55;1.00;;;17.50;99.90;;;;;;5085456;28;20195;-77
2022/10/06 02:51:01;;;;;;;4.00;1.08;;;17.50;99.90;;;;;;5091507;28;20196;-77
2022/10/06 02:53:34;;;;;;;3.55;1.10;;;17.50;99.90;;;;;;5090121;28;20726;-76
2022/10/06 02:56:06;;;;;;;4.70;1.30;;;17.60;99.90;;;;;;5084280;28;20203;-77
2022/10/06 02:58:38;;;;;;;2.88;1.02;;;17.60;99.90;;;;;;5088820;28;20199;-76
2022/10/06 03:01:10;;;;;;;4.75;1.25;;;17.60;99.90;;;;;;5087151;28;20191;-77
2022/10/06 03:03:41;;;;;;;3.47;0.93;;;17.70;99.90;;;;;;5090613;28;20199;-79
2022/10/06 03:06:22;;;;;;;4.50;1.30;;;17.70;99.90;;;;;;5090866;28;20195;-77
2022/10/06 03:08:56;;;;;;;5.85;1.63;;;17.70;99.90;;;;;;5086413;28;20199;-78
2022/10/06 03:11:28;;;;;;;4.07;1.42;;;17.70;99.90;;;;;;5087657;28;20195;-78
2022/10/06 03:13:59;;;;;;;8.77;2.00;;;17.70;99.90;;;;;;5090031;28;20233;-78
2022/10/06 03:16:31;;;;;;;2.72;0.90;;;17.80;99.90;;;;;;5086468;28;20199;-77
2022/10/06 03:19:02;;;;;;;3.63;1.25;;;17.80;99.90;;;;;;5076474;28;20198;-77
2022/10/06 03:21:34;;;;;;;3.45;1.23;;;17.80;99.90;;;;;;5078146;28;20227;-75
2022/10/06 03:24:07;;;;;;;2.75;1.10;;;17.90;99.90;;;;;;5072948;28;20224;-77
2022/10/06 03:26:40;;;;;;;3.63;1.30;;;17.80;99.90;;;;;;5100502;28;20196;-77
2022/10/06 03:29:11;;;;;;;5.18;1.50;;;17.80;99.90;;;;;;5098687;28;20195;-76
2022/10/06 03:31:42;;;;;;;2.63;1.30;;;17.80;99.90;;;;;;5079871;28;20207;-77
2022/10/06 03:34:14;;;;;;;4.72;1.52;;;17.80;99.90;;;;;;5064065;28;20284;-77
2022/10/06 03:36:45;;;;;;;5.15;1.80;;;17.80;99.90;;;;;;5064006;28;20195;-78
2022/10/06 03:39:18;;;;;;;7.88;1.73;;;17.80;99.90;;;;;;5069472;28;20192;-79
2022/10/06 03:41:49;;;;;;;5.68;1.73;;;17.80;99.90;;;;;;5089763;28;20591;-79
2022/10/06 03:44:20;;;;;;;5.30;1.30;;;17.80;99.90;;;;;;5091561;28;20227;-81
2022/10/06 03:46:52;;;;;;;4.82;1.25;;;17.80;99.90;;;;;;5084625;28;20263;-80
2022/10/06 03:49:25;;;;;;;8.05;1.67;;;17.80;99.90;;;;;;5077646;28;20195;-81
2022/10/06 03:52:02;;;;;;;3.63;1.23;;;17.80;99.90;;;;;;5078588;28;20198;-82
2022/10/06 03:54:35;;;;;;;4.10;1.10;;;17.80;99.90;;;;;;5070734;28;20203;-81
2022/10/06 03:57:06;;;;;;;4.50;1.33;;;17.80;99.90;;;;;;5082474;28;20199;-80
2022/10/06 03:59:40;;;;;;;6.28;1.60;;;17.90;99.90;;;;;;5089106;28;20296;-80
2022/10/06 04:02:10;;;;;;;4.90;1.40;;;17.90;99.90;;;;;;5096299;28;20195;-81
2022/10/06 04:04:46;;;;;;;5.75;1.40;;;17.90;99.90;;;;;;5093142;28;20218;-80
2022/10/06 04:07:17;;;;;;;7.47;1.70;;;17.90;99.90;;;;;;5095128;28;20195;-81
2022/10/06 04:09:51;;;;;;;6.57;1.95;;;17.90;99.90;;;;;;5091852;28;20203;-81
2022/10/06 04:12:23;;;;;;;6.40;1.65;;;18.00;99.90;;;;;;5094463;28;20192;-81
2022/10/06 04:14:53;;;;;;;7.38;2.15;;;17.90;99.90;;;;;;5096689;28;20202;-81
2022/10/06 04:17:24;;;;;;;9.55;1.73;;;17.90;99.90;;;;;;5095523;28;20205;-81
2022/10/06 04:19:55;;;;;;;8.98;1.85;;;17.90;99.90;;;;;;5093494;28;20198;-80
2022/10/06 04:22:26;;;;;;;5.75;1.55;;;17.90;99.90;;;;;;5074692;28;20212;-80
2022/10/06 04:24:59;;;;;;;6.43;1.60;;;17.90;99.90;;;;;;5085379;28;20250;-80
2022/10/06 04:27:30;;;;;;;6.45;1.65;;;17.90;99.90;;;;;;5089050;28;20188;-80
2022/10/06 04:30:03;;;;;;;8.30;1.98;;;17.90;99.90;;;;;;5096369;28;20192;-79
2022/10/06 04:32:37;;;;;;;10.43;2.00;;;18.00;99.90;;;;;;5086075;28;20195;-80
2022/10/06 04:35:08;;;;;;;7.78;1.80;;;18.00;99.90;;;;;;5093690;28;20219;-81
2022/10/06 04:37:41;;;;;;;5.95;1.67;;;17.90;99.90;;;;;;5092311;28;20199;-81
2022/10/06 04:40:19;;;;;;;9.23;1.60;;;17.90;99.90;;;;;;5094545;28;20195;-81
2022/10/06 04:42:51;;;;;;;7.13;1.30;;;17.90;99.90;;;;;;5093912;28;20203;-82
2022/10/06 04:45:23;;;;;;;9.38;1.63;;;17.90;99.90;;;;;;5097557;28;20207;-81
2022/10/06 04:47:53;;;;;;;6.50;1.75;;;17.90;99.90;;;;;;5094825;28;20207;-81
2022/10/06 04:50:24;;;;;;;8.07;1.73;;;17.80;99.90;;;;;;5094327;28;20695;-81
2022/10/06 04:53:00;;;;;;;6.47;1.55;;;17.80;99.90;;;;;;5094169;28;20237;-80
2022/10/06 04:55:33;;;;;;;4.45;1.20;;;17.80;99.90;;;;;;5086463;28;20278;-80
2022/10/06 04:58:03;;;;;;;5.75;1.33;;;17.80;99.90;;;;;;5093755;28;20199;-80
2022/10/06 05:00:34;;;;;;;4.72;1.15;;;17.80;99.90;;;;;;5082022;28;20200;-81
2022/10/06 05:03:05;;;;;;;3.28;0.98;;;17.80;99.90;;;;;;5092824;28;20198;-81
2022/10/06 05:05:36;;;;;;;3.03;0.80;;;17.70;99.90;;;;;;5092323;28;20310;-82
2022/10/06 05:08:06;;;;;;;3.63;0.90;;;17.70;99.90;;;;;;5086904;28;20665;-81
2022/10/06 05:10:39;;;;;;;4.82;1.30;;;17.70;99.90;;;;;;5086734;28;20237;-78
2022/10/06 05:13:11;;;;;;;3.90;1.02;;;17.70;99.90;;;;;;5085726;28;20226;-78
2022/10/06 05:15:42;;;;;;;5.35;1.20;;;17.70;99.90;;;;;;5092146;28;20199;-78
2022/10/06 05:18:13;;;;;;;4.57;1.30;;;17.80;99.90;;;;;;5092208;28;20222;-81
2022/10/06 05:20:45;;;;;;;3.85;1.10;;;17.80;99.90;;;;;;5080477;28;20279;-80
2022/10/06 05:23:17;;;;;;;5.07;1.33;;;17.90;99.90;;;;;;5084587;28;20560;-80
2022/10/06 05:25:56;;;;;;;6.13;1.60;;;18.00;99.90;;;;;;5091811;28;20287;-81
2022/10/06 05:28:27;;;;;;;6.80;1.70;;;18.00;99.90;;;;;;5086773;28;20199;-79
2022/10/06 05:31:00;;;;;;;4.85;1.27;;;18.10;99.90;;;;;;5084133;28;20239;-79
2022/10/06 05:33:33;;;;;;;10.50;1.70;;;18.20;99.90;;;;;;5093002;28;20231;-80
2022/10/06 05:36:05;;;;;;;9.57;1.95;;;18.20;99.90;;;;;;5091337;28;20540;-80
2022/10/06 05:38:37;;;;;;;5.35;1.55;;;18.10;99.90;;;;;;5090620;28;20195;-78
2022/10/06 05:41:12;;;;;;;5.35;1.45;;;18.10;99.90;;;;;;5090555;28;20679;-79
2022/10/06 05:43:44;;;;;;;6.38;1.70;;;18.00;99.90;;;;;;5097396;28;20209;-79
2022/10/06 05:46:16;;;;;;;5.55;1.38;;;18.00;99.90;;;;;;5077961;28;20258;-78
2022/10/06 05:48:48;;;;;;;7.57;1.50;;;18.00;99.90;;;;;;5080053;28;20279;-78
2022/10/06 05:51:20;;;;;;;4.07;1.30;;;18.00;99.90;;;;;;5089299;28;20546;-80
2022/10/06 05:53:51;;;;;;;3.65;1.02;;;18.10;99.90;;;;;;5090529;28;20750;-80
2022/10/06 05:56:25;;;;;;;3.42;1.20;;;18.10;99.90;;;;;;5088934;28;20202;-80
2022/10/06 05:58:57;;;;;;;4.43;1.10;;;18.10;99.90;;;;;;5094625;28;20202;-81
2022/10/06 06:01:30;;;;;;;4.25;1.27;;;18.20;99.90;;;;;;5091254;28;20187;-80
2022/10/06 06:04:02;;;;;;;3.50;1.38;;;18.10;99.90;;;;;;5083597;28;20194;-80
2022/10/06 06:06:34;;;;;;;4.38;1.30;;;18.10;99.90;;;;;;5087329;28;20618;-81
2022/10/06 06:09:07;;;;;;;5.57;1.40;;;18.10;99.90;;;;;;5085818;28;20200;-82
2022/10/06 06:11:41;;;;;;;3.30;1.15;;;18.10;99.90;;;;;;5084035;28;20202;-80
2022/10/06 06:14:13;;;;;;;4.90;1.38;;;18.10;99.90;;;;;;5087149;28;20237;-79
2022/10/06 06:16:43;;;;;;;4.07;1.25;;;18.20;99.90;;;;;;5087597;28;20210;-78
2022/10/06 06:19:15;;;;;;;6.47;1.55;;;18.10;99.90;;;;;;5086510;28;20198;-79
2022/10/06 06:21:45;;;;;;;4.00;1.20;;;18.20;99.90;;;;;;5086191;28;20208;-78
2022/10/06 06:24:16;;;;;;;6.47;1.33;;;18.20;99.90;;;;;;5085137;28;20318;-82
2022/10/06 06:26:49;;;;;;;3.08;1.20;;;18.30;99.90;;;;;;5066765;28;20333;-76
2022/10/06 06:29:20;;;;;;;3.88;1.20;;;18.30;99.90;;;;;;5074720;28;20232;-76
2022/10/06 06:31:50;;;;;;;4.47;1.58;;;18.40;99.90;;;;;;5087228;28;20225;-76
2022/10/06 06:34:21;;;;;;;5.75;1.40;;;18.50;99.90;;;;;;5082830;28;20223;-76
2022/10/06 06:36:54;;;;;;;5.75;1.13;;;18.40;99.90;;;;;;5087729;28;20211;-77
2022/10/06 06:39:25;;;;;;;3.70;1.30;;;18.40;99.90;;;;;;5085421;28;20280;-77
2022/10/06 06:42:00;;;;;;;4.72;1.00;;;18.50;99.90;;;;;;5087283;28;20199;-76
2022/10/06 06:44:32;;;;;;;4.05;1.10;;;18.50;99.90;;;;;;5087811;28;20198;-75
2022/10/06 06:47:03;;;;;;;5.38;1.33;;;18.40;99.90;;;;;;5087557;28;20680;-76
2022/10/06 06:49:34;;;;;;;8.27;1.52;;;18.40;99.90;;;;;;5086991;28;20353;-76
2022/10/06 06:52:05;;;;;;;6.20;1.42;;;18.30;99.90;;;;;;5086265;28;20206;-76
2022/10/06 06:54:36;;;;;;;8.43;2.00;;;18.30;99.90;;;;;;5083639;28;21622;-75
2022/10/06 06:57:09;;;;;;;6.97;1.65;;;18.20;99.90;;;;;;5083702;28;20207;-76
2022/10/06 06:59:40;;;;;;;6.70;1.52;;;18.20;99.90;;;;;;5085381;28;20218;-76
2022/10/06 07:02:12;;;;;;;9.07;1.75;;;18.20;99.90;;;;;;5084775;28;20214;-77
2022/10/06 07:04:43;;;;;;;7.45;1.80;;;18.20;99.90;;;;;;5089932;28;20347;-77
2022/10/06 07:07:14;;;;;;;6.63;1.73;;;18.20;99.90;;;;;;5088603;28;20199;-77
2022/10/06 07:09:45;;;;;;;6.70;1.85;;;18.20;99.90;;;;;;5087956;28;20195;-77
2022/10/06 07:12:18;;;;;;;4.05;1.42;;;18.10;99.90;;;;;;5087896;28;20202;-76
2022/10/06 07:26:11;;;;;;;5.65;1.40;;;18.00;99.90;;;;;;5078588;28;20605;-77
2022/10/06 07:28:43;;;;;;;7.60;1.88;;;18.00;99.90;;;;;;5084820;28;20211;-77
2022/10/06 07:31:15;;;;;;;7.43;1.70;;;17.90;99.90;;;;;;5090421;28;20253;-77
2022/10/06 07:33:45;;;;;;;6.53;1.33;;;17.90;99.90;;;;;;5089960;28;20192;-77
2022/10/06 07:36:17;;;;;;;8.80;1.67;;;17.90;99.90;;;;;;5091011;28;20202;-78
2022/10/06 07:38:48;;;;;;;8.27;2.33;;;17.90;99.90;;;;;;5089850;28;20203;-76
2022/10/06 07:41:18;;;;;;;11.00;2.22;;;17.90;99.90;;;;;;5086820;28;20195;-76
2022/10/06 07:43:52;;;;;;;10.82;2.70;;;17.90;99.90;;;;;;5086829;28;20191;-76
2022/10/06 07:46:23;;;;;;;5.55;1.80;;;17.90;99.90;;;;;;5089668;28;20701;-77
2022/10/06 07:48:54;;;;;;;8.05;2.00;;;17.90;99.90;;;;;;5085751;28;20192;-77
2022/10/06 07:51:26;;;;;;;7.60;1.70;;;17.80;99.90;;;;;;5088681;28;20207;-77
2022/10/06 07:53:56;;;;;;;7.45;2.00;;;17.80;99.90;;;;;;5087642;28;20235;-77
2022/10/06 07:56:28;;;;;;;9.18;2.40;;;17.90;99.90;;;;;;5083967;28;20210;-76
2022/10/06 07:59:00;;;;;;;9.18;2.30;;;17.90;99.90;;;;;;5086162;28;20196;-77
2022/10/06 08:01:31;;;;;;;9.65;2.45;;;17.90;99.90;;;;;;5084876;28;20200;-78
2022/10/06 08:04:05;;;;;;;7.18;1.92;;;17.90;99.90;;;;;;5090191;28;20654;-80
2022/10/06 08:06:37;;;;;;;8.80;1.80;;;17.90;99.90;;;;;;5077245;28;20221;-80
2022/10/06 08:09:08;;;;;;;10.30;2.10;;;17.90;99.90;;;;;;5087940;28;20239;-80
2022/10/06 08:11:39;;;;;;;11.85;2.03;;;17.90;99.90;;;;;;5084349;28;20191;-80
2022/10/06 08:14:13;;;;;;;6.30;1.52;;;17.90;99.90;;;;;;5088818;28;20317;-80
2022/10/06 08:16:44;;;;;;;5.45;1.40;;;17.90;99.90;;;;;;5089929;28;20608;-80
2022/10/06 08:19:16;;;;;;;5.03;1.70;;;17.90;99.90;;;;;;5075732;28;20659;-80
2022/10/06 08:21:47;;;;;;;4.20;1.60;;;17.80;99.90;;;;;;5080367;28;20541;-81
2022/10/06 08:24:19;;;;;;;4.10;1.75;;;17.80;99.90;;;;;;5089528;28;20199;-81
2022/10/06 08:26:50;;;;;;;4.18;1.30;;;17.80;99.90;;;;;;5081089;28;20652;-79
2022/10/06 08:29:22;;;;;;;5.03;1.38;;;17.80;99.90;;;;;;5087227;28;20258;-79
2022/10/06 08:31:58;;;;;;;3.47;1.30;;;17.80;99.90;;;;;;5074826;28;20686;-82
2022/10/06 08:34:28;;;;;;;4.20;1.10;;;17.70;99.90;;;;;;5085668;28;20203;-83
2022/10/06 08:37:00;;;;;;;5.03;1.80;;;17.70;99.90;;;;;;5074365;28;20196;-81
2022/10/06 08:39:33;;;;;;;4.35;1.48;;;17.70;99.90;;;;;;5090758;28;20278;-81
2022/10/06 08:42:04;;;;;;;3.80;1.88;;;17.70;99.90;;;;;;5090106;28;20294;-81
2022/10/06 08:44:43;;;;;;;6.40;4.15;;;17.70;99.90;;;;;;5092540;28;20202;-81
2022/10/06 08:47:18;;;;;;;11.55;9.45;;;17.60;99.90;;;;;;5092563;28;20230;-80
2022/10/06 08:49:50;;;;;;;8.43;6.70;;;17.60;99.90;;;;;;5110117;28;20194;-81
2022/10/06 08:52:46;;;;;;;6.80;4.35;;;17.60;99.90;;;;;;5102679;28;20274;-81
2022/10/06 08:55:28;;;;;;;6.53;3.67;;;17.60;99.90;;;;;;5088767;28;20192;-81
2022/10/06 08:58:28;;;;;;;3.47;2.60;;;17.60;99.90;;;;;;5090295;28;20271;-81
2022/10/06 09:01:11;;;;;;;4.70;2.25;;;17.60;99.90;;;;;;5092150;28;20226;-81
2022/10/06 09:03:44;;;;;;;5.38;2.47;;;17.60;99.90;;;;;;5089289;28;20198;-81
2022/10/06 09:06:36;;;;;;;6.90;2.10;;;17.60;99.90;;;;;;5095500;28;20250;-81
2022/10/06 09:09:20;;;;;;;7.28;4.50;;;17.60;99.90;;;;;;5075019;28;20214;-81
2022/10/06 09:12:05;;;;;;;4.75;3.90;;;17.60;99.90;;;;;;5085061;28;20199;-81
2022/10/06 09:14:43;;;;;;;6.15;2.92;;;17.60;99.90;;;;;;5089203;28;20727;-81
2022/10/06 09:17:25;;;;;;;6.07;2.28;;;17.60;99.90;;;;;;5077594;28;20230;-81
2022/10/06 09:20:00;;;;;;;5.05;2.80;;;17.60;99.90;;;;;;5092033;28;20214;-81
2022/10/06 09:22:35;;;;;;;3.40;2.78;;;17.60;99.90;;;;;;5090540;28;20228;-81
2022/10/06 09:25:26;;;;;;;5.68;2.92;;;17.60;99.90;;;;;;5105952;28;20570;-81
2022/10/06 09:28:02;;;;;;;6.47;3.38;;;17.60;99.90;;;;;;5090257;28;20671;-81
2022/10/06 09:30:34;;;;;;;6.82;3.30;;;17.60;99.90;;;;;;5087820;28;20195;-82
2022/10/06 09:33:35;;;;;;;6.22;3.05;;;17.60;99.90;;;;;;5090604;28;20204;-82
2022/10/06 09:36:13;;;;;;;3.70;2.83;;;17.60;99.90;;;;;;5079399;28;20228;-82
2022/10/06 09:39:35;;;;;;;4.43;2.92;;;17.60;99.90;;;;;;5077842;28;20203;-81
2022/10/06 09:42:15;;;;;;;5.68;3.83;;;17.60;99.90;;;;;;5093516;28;20202;-83
2022/10/06 09:45:24;;;;;;;6.80;3.42;;;17.60;99.90;;;;;;5076902;28;20249;-82
2022/10/06 09:48:09;;;;;;;6.57;2.67;;;17.50;99.90;;;;;;5073331;28;20717;-83
2022/10/06 09:51:14;;;;;;;5.03;2.47;;;17.50;99.90;;;;;;5093842;28;20226;-81
2022/10/06 09:56:56;;;;;;;5.60;2.35;;;17.50;99.90;;;;;;5082105;28;20229;-83
2022/10/06 09:59:58;;;;;;;5.28;2.88;;;17.50;99.90;;;;;;5087085;28;20223;-83
2022/10/06 10:02:48;;;;;;;4.28;2.17;;;17.50;99.90;;;;;;5080411;28;20263;-82
2022/10/06 10:05:53;;;;;;;5.63;1.90;;;17.50;99.90;;;;;;5094155;28;20706;-82
2022/10/06 10:08:53;;;;;;;10.15;2.03;;;17.50;99.90;;;;;;5096406;28;20218;-85
2022/10/06 10:14:22;;;;;;;8.25;2.35;;;17.50;99.90;;;;;;5096535;28;20604;-81
2022/10/06 10:17:18;;;;;;;8.63;2.17;;;17.50;99.90;;;;;;5092841;28;20258;-85
2022/10/06 10:19:59;;;;;;;7.28;2.58;;;17.50;99.90;;;;;;5089366;28;20221;-84
2022/10/06 10:22:55;;;;;;;4.18;1.60;;;17.50;99.90;;;;;;5089509;28;20198;-84
2022/10/06 10:26:02;;;;;;;7.28;1.65;;;17.50;99.90;;;;;;5088002;28;20286;-81
2022/10/06 10:29:15;;;;;;;6.28;2.10;;;17.50;99.90;;;;;;5063255;28;20191;-82
2022/10/06 10:32:08;;;;;;;7.03;1.98;;;17.60;99.90;;;;;;5087744;28;20302;-81
2022/10/06 10:35:20;;;;;;;10.18;2.40;;;17.50;99.90;;;;;;5093305;28;20226;-83
2022/10/06 10:38:57;;;;;;;3.95;1.50;;;17.50;99.90;;;;;;5047278;28;20199;-82
2022/10/06 10:42:05;;;;;;;;;;;;;;;;;;;;;
2022/10/06 10:47:53;;;;;;;6.68;1.98;;;17.50;99.90;;;;;;5097784;28;20291;-80
2022/10/06 10:54:04;;;;;;;8.27;2.05;;;17.50;99.90;;;;;;5067576;28;20227;-83
2022/10/06 10:56:38;;;;;;;8.05;1.75;;;17.50;99.90;;;;;;5073970;28;20745;-80
2022/10/06 10:59:19;;;;;;;7.47;1.73;;;17.50;99.90;;;;;;5077445;28;20215;-81
2022/10/06 11:01:59;;;;;;;6.07;1.98;;;17.50;99.90;;;;;;5085720;28;20233;-81
2022/10/06 11:04:30;;;;;;;8.68;2.00;;;17.50;99.90;;;;;;5096601;28;20225;-81
2022/10/06 11:07:22;;;;;;;8.75;1.80;;;17.50;99.90;;;;;;5092181;28;20245;-81
2022/10/06 11:10:02;;;;;;;9.48;2.00;;;17.50;99.90;;;;;;5073934;28;20196;-81
2022/10/06 11:12:56;;;;;;;9.07;1.70;;;17.50;99.90;;;;;;5092828;28;20234;-81
2022/10/06 11:15:43;;;;;;;6.43;1.75;;;17.50;99.90;;;;;;5091088;28;20577;-80
2022/10/06 11:18:28;;;;;;;11.27;2.05;;;17.60;99.90;;;;;;5093473;28;20217;-80
2022/10/06 11:21:05;;;;;;;12.88;2.08;;;17.60;99.90;;;;;;5083055;28;20537;-81
2022/10/06 11:23:52;;;;;;;10.77;1.92;;;17.60;99.90;;;;;;5092697;28;20203;-81
2022/10/06 11:26:50;;;;;;;11.98;1.83;;;17.60;99.90;;;;;;5085909;28;20203;-81
2022/10/06 11:29:35;;;;;;;11.25;2.30;;;17.70;99.90;;;;;;5091823;28;20199;-81
2022/10/06 11:32:22;;;;;;;7.22;1.63;;;17.70;99.90;;;;;;5090794;28;20240;-81
2022/10/06 11:34:53;;;;;;;9.48;2.10;;;17.70;99.90;;;;;;5089498;28;20211;-81
2022/10/06 11:37:36;;;;;;;7.97;1.98;;;17.70;99.90;;;;;;5072007;28;20200;-79
2022/10/06 11:40:29;;;;;;;6.47;1.73;;;17.70;99.90;;;;;;5088708;28;20227;-81
2022/10/06 11:43:07;;;;;;;7.65;1.90;;;17.70;99.90;;;;;;5089574;28;20199;-81
2022/10/06 11:45:48;;;;;;;9.80;2.25;;;17.70;99.90;;;;;;5089203;28;20219;-80
2022/10/06 11:48:26;;;;;;;7.32;1.50;;;17.70;99.90;;;;;;5087788;28;20215;-80
2022/10/06 11:50:57;;;;;;;9.38;1.77;;;17.70;99.90;;;;;;5089063;28;20207;-79
2022/10/06 11:53:41;;;;;;;8.90;1.90;;;17.70;99.90;;;;;;5080838;28;20192;-78
2022/10/06 11:56:44;;;;;;;11.20;2.38;;;17.70;99.90;;;;;;5082152;28;20195;-78
2022/10/06 11:59:32;;;;;;;7.88;1.70;;;17.70;99.90;;;;;;5073401;28;20253;-80
2022/10/06 12:02:05;;;;;;;9.50;1.80;;;17.70;99.90;;;;;;5085152;28;20217;-80
2022/10/06 12:04:35;;;;;;;8.48;1.83;;;17.70;99.90;;;;;;5091492;28;20210;-81
2022/10/06 12:07:07;;;;;;;6.40;1.90;;;17.70;99.90;;;;;;5090131;28;20238;-80
2022/10/06 12:10:15;;;;;;;9.80;1.90;;;17.70;99.90;;;;;;5076828;28;20220;-80
2022/10/06 12:12:57;;;;;;;9.18;1.90;;;17.70;99.90;;;;;;5092625;28;20236;-80
2022/10/06 12:15:51;;;;;;;5.70;1.60;;;17.70;99.90;;;;;;5093700;28;20213;-81
2022/10/06 12:18:43;;;;;;;7.45;1.73;;;17.70;99.90;;;;;;5078570;28;20195;-81
2022/10/06 12:21:34;;;;;;;12.75;1.80;;;17.70;99.90;;;;;;5082231;28;20195;-81
2022/10/06 12:24:18;;;;;;;8.73;1.67;;;17.70;99.90;;;;;;5091739;28;20203;-81
2022/10/06 12:26:56;;;;;;;9.25;2.47;;;17.70;99.90;;;;;;5093903;28;20221;-82
2022/10/06 12:29:41;;;;;;;11.27;2.50;;;17.70;99.90;;;;;;5091539;28;20193;-83
2022/10/06 12:32:24;;;;;;;11.77;2.17;;;17.70;99.90;;;;;;5074354;28;20667;-82
2022/10/06 12:35:25;;;;;;;12.00;2.03;;;17.80;99.90;;;;;;5087349;28;20203;-82
2022/10/06 12:38:03;;;;;;;14.35;2.90;;;17.70;99.90;;;;;;5082024;28;20214;-82
2022/10/06 12:40:54;;;;;;;9.68;1.92;;;17.80;99.90;;;;;;5079868;28;20274;-81
2022/10/06 12:43:45;;;;;;;11.82;1.85;;;17.80;99.90;;;;;;5073824;28;20196;-81
2022/10/06 12:46:21;;;;;;;8.73;1.83;;;17.80;99.90;;;;;;5088943;28;20199;-80
2022/10/06 12:49:05;;;;;;;9.38;1.80;;;17.80;99.90;;;;;;5093618;28;20709;-80
2022/10/06 12:51:37;;;;;;;8.88;2.20;;;17.80;99.90;;;;;;5088623;28;20192;-80
2022/10/06 12:54:19;;;;;;;9.05;2.00;;;17.80;99.90;;;;;;5084769;28;20599;-80
2022/10/06 12:57:01;;;;;;;6.60;1.55;;;17.80;99.90;;;;;;5097980;28;20199;-80
2022/10/06 12:59:34;;;;;;;10.23;1.95;;;17.80;99.90;;;;;;5092427;28;20278;-81
2022/10/06 13:02:10;;;;;;;7.25;1.83;;;17.90;99.90;;;;;;5090456;28;20206;-80
2022/10/06 13:04:44;;;;;;;11.57;1.80;;;17.90;99.90;;;;;;5084997;28;20263;-80
2022/10/06 13:07:19;;;;;;;12.27;1.88;;;17.90;99.90;;;;;;5088638;28;20219;-80
2022/10/06 13:09:54;;;;;;;12.32;2.03;;;17.90;99.90;;;;;;5086217;28;20758;-80
2022/10/06 13:12:30;;;;;;;10.02;2.08;;;17.90;99.90;;;;;;5075977;28;20207;-80
2022/10/06 13:15:19;;;;;;;7.05;2.00;;;17.90;99.90;;;;;;5088161;28;20198;-80
2022/10/06 13:17:53;;;;;;;9.95;2.78;;;17.90;99.90;;;;;;5083877;28;20200;-81
2022/10/06 13:20:37;;;;;;;6.90;2.20;;;17.80;99.90;;;;;;5090704;28;20196;-80
2022/10/06 13:23:24;;;;;;;7.50;2.25;;;17.80;99.90;;;;;;5093466;28;20710;-81
2022/10/06 13:26:03;;;;;;;6.35;1.98;;;17.80;99.90;;;;;;5085497;28;20187;-81
2022/10/06 13:28:48;;;;;;;6.90;1.80;;;17.80;99.90;;;;;;5091389;28;20215;-80
2022/10/06 13:31:22;;;;;;;6.43;1.80;;;17.70;99.90;;;;;;5093074;28;20683;-80
2022/10/06 13:33:57;;;;;;;10.05;2.25;;;17.80;99.90;;;;;;5092100;28;20204;-79
2022/10/06 13:36:29;;;;;;;6.53;1.90;;;17.70;99.90;;;;;;5092214;28;20567;-79
2022/10/06 13:39:08;;;;;;;8.93;2.08;;;17.70;99.90;;;;;;5093098;28;20580;-79
2022/10/06 13:41:46;;;;;;;9.32;2.53;;;17.70;99.90;;;;;;5085875;28;20196;-79
2022/10/06 13:44:32;;;;;;;9.10;2.65;;;17.70;99.90;;;;;;5078825;28;20211;-79
2022/10/06 13:47:05;;;;;;;9.70;2.90;;;17.70;99.90;;;;;;5085690;28;20559;-79
2022/10/06 13:49:41;;;;;;;6.53;3.25;;;17.70;99.90;;;;;;5090603;28;20187;-80
2022/10/06 13:52:19;;;;;;;9.68;3.35;;;17.70;99.90;;;;;;5072557;28;20685;-79
2022/10/06 13:54:53;;;;;;;6.82;3.25;;;17.70;99.90;;;;;;5078899;28;20222;-79
2022/10/06 13:57:40;;;;;;;11.18;3.90;;;17.70;99.90;;;;;;5089888;28;20200;-79
2022/10/06 14:00:20;;;;;;;11.20;4.40;;;17.70;99.90;;;;;;5085237;28;20191;-80